Time;durP1;ratioP1;P1;durP2;ratioP2;P2;SDS_P1;SDS_P2;PMS_P1;PMS_P2;Temp;Humidity;BMP_temperature;BMP_pressure;BME280_temperature;BME280_humidity;BME280_pressure;Samples;Min_cycle;Max_cycle;Signal;HPM_P1;HPM_P2
2022/05/14 00:02:05;;;;;;;1.13;0.88;;;;;;;25.70;55.96;100924.56;4938086;29;20050;-56
2022/05/14 00:04:49;;;;;;;0.80;0.80;;;;;;;25.68;56.03;100923.97;4938223;29;20142;-52
2022/05/14 00:07:33;;;;;;;;;;;;;;;25.64;55.99;100917.28;4938580;29;20416;-53
2022/05/14 00:10:18;;;;;;;1.02;0.80;;;;;;;25.66;55.97;100920.63;4938150;29;19921;-54
2022/05/14 00:13:05;;;;;;;0.95;0.90;;;;;;;25.66;55.96;100912.44;4937786;29;20095;-55
2022/05/14 00:15:49;;;;;;;1.00;0.90;;;;;;;25.65;55.94;100916.22;4938193;29;20082;-56
2022/05/14 00:18:34;;;;;;;0.95;0.77;;;;;;;25.65;56.15;100916.22;4937947;29;20078;-53
2022/05/14 00:21:19;;;;;;;0.75;0.70;;;;;;;25.63;56.03;100910.97;4936559;29;20575;-54
2022/05/14 00:24:06;;;;;;;0.93;0.80;;;;;;;25.63;56.09;100913.72;4937593;29;20035;-53
2022/05/14 00:26:50;;;;;;;0.95;0.80;;;;;;;25.62;56.01;100916.69;4936520;29;20102;-54
2022/05/14 00:29:34;;;;;;;;;;;;;;;25.56;56.08;100909.41;4938216;29;20054;-52
2022/05/14 00:32:17;;;;;;;1.00;0.90;;;;;;;25.58;56.01;100915.47;4937252;29;19925;-53
2022/05/14 00:35:02;;;;;;;;;;;;;;;25.54;56.13;100908.78;4937893;29;20054;-54
2022/05/14 00:37:46;;;;;;;1.67;0.80;;;;;;;25.57;56.44;100900.13;4937635;29;19962;-57
2022/05/14 00:40:37;;;;;;;0.95;0.80;;;;;;;25.59;56.11;100909.78;4936302;29;20053;-53
2022/05/14 00:43:21;;;;;;;0.70;0.70;;;;;;;25.55;56.23;100908.56;4937198;29;20038;-53
2022/05/14 00:46:14;;;;;;;0.80;0.80;;;;;;;25.56;56.14;100915.69;4937446;29;20152;-52
2022/05/14 00:48:58;;;;;;;1.17;0.88;;;;;;;25.54;56.33;100911.53;4936427;29;20052;-53
2022/05/14 00:51:45;;;;;;;0.80;0.80;;;;;;;25.53;56.24;100907.13;4936986;29;20059;-53
2022/05/14 00:54:35;;;;;;;1.05;0.80;;;;;;;25.53;56.28;100907.13;4936053;29;20099;-54
2022/05/14 00:57:23;;;;;;;0.82;0.80;;;;;;;25.53;56.33;100907.13;4936286;29;20058;-53
2022/05/14 01:00:11;;;;;;;0.80;0.80;;;;;;;25.51;56.37;100909.25;4935901;29;20059;-53
2022/05/14 01:02:55;;;;;;;0.77;0.70;;;;;;;25.49;56.25;100914.06;4936714;29;20050;-53
2022/05/14 01:05:38;;;;;;;;;;;;;;;25.43;56.30;100913.09;4937224;29;20057;-53
2022/05/14 01:08:22;;;;;;;0.60;0.60;;;;;;;25.44;56.19;100898.38;4936792;29;20350;-55
2022/05/14 01:11:06;;;;;;;0.65;0.65;;;;;;;25.45;56.19;100905.53;4936232;29;20087;-53
2022/05/14 01:13:50;;;;;;;;;;;;;;;25.41;56.25;100908.94;4936367;29;20175;-55
2022/05/14 01:16:34;;;;;;;0.70;0.70;;;;;;;25.42;56.35;100905.13;4936956;29;19922;-56
2022/05/14 01:19:18;;;;;;;;;;;;;;;25.37;56.20;100897.63;4936986;29;20047;-53
2022/05/14 01:22:39;;;;;;;0.80;0.80;;;;;;;25.40;56.24;100902.63;4936748;29;19921;-53
2022/05/14 01:28:38;;;;;;;1.07;0.97;;;;;;;25.37;56.28;100902.22;4936549;29;20058;-54
2022/05/14 01:31:22;;;;;;;1.48;0.70;;;;;;;25.38;56.31;100901.16;4967083;22;20380;-50
2022/05/14 01:34:09;;;;;;;0.70;0.70;;;;;;;25.38;56.40;100898.44;4979682;28;20514;-52
2022/05/14 01:36:53;;;;;;;0.63;0.63;;;;;;;25.35;56.38;100898.91;4994481;28;20092;-51
2022/05/14 01:39:37;;;;;;;;;;;;;;;25.30;56.59;100896.03;4994860;28;20549;-49
2022/05/14 01:42:20;;;;;;;1.43;0.80;;;;;;;25.31;56.54;100901.22;4965744;28;19925;-54
2022/05/14 01:45:04;;;;;;;;;;;;;;;25.27;56.55;100891.84;4994786;28;20771;-54
2022/05/14 01:47:48;;;;;;;0.98;0.68;;;;;;;25.29;56.61;100891.59;4994080;28;19920;-53
2022/05/14 01:50:32;;;;;;;;;;;;;;;25.26;56.50;100894.78;4994733;28;20049;-50
2022/05/14 01:53:16;;;;;;;0.73;0.60;;;;;;;25.27;56.65;100893.72;4979432;28;19920;-49
2022/05/14 01:56:00;;;;;;;0.70;0.70;;;;;;;25.28;56.69;100892.66;4994250;28;20092;-55
2022/05/14 01:58:44;;;;;;;;;;;;;;;25.23;56.79;100889.78;4979931;28;20104;-52
2022/05/14 02:01:33;;;;;;;1.00;0.80;;;;;;;25.25;56.71;100887.66;4993741;28;19997;-49
2022/05/14 02:04:17;;;;;;;0.88;0.80;;;;;;;25.24;56.95;100886.00;4994244;28;20057;-56
2022/05/14 02:07:01;;;;;;;;;;;;;;;25.19;56.80;100880.31;4994776;28;20053;-52
2022/05/14 02:09:46;;;;;;;0.70;0.70;;;;;;;25.20;56.69;100882.00;4979139;28;19964;-50
2022/05/14 02:12:29;;;;;;;0.70;0.70;;;;;;;25.21;56.64;100890.00;4994030;28;20049;-52
2022/05/14 02:15:13;;;;;;;;;;;;;;;25.15;56.59;100881.84;4994486;28;20581;-52
2022/05/14 02:17:57;;;;;;;0.75;0.70;;;;;;;25.18;56.62;100881.38;4993997;28;20432;-51
2022/05/14 02:20:41;;;;;;;0.70;0.68;;;;;;;25.19;56.78;100888.50;4993751;28;20057;-51
2022/05/14 02:23:25;;;;;;;;;;;;;;;25.13;56.76;100879.31;4993946;28;20053;-51
2022/05/14 02:26:12;;;;;;;0.73;0.73;;;;;;;25.14;56.65;100878.25;4978956;28;19920;-50
2022/05/14 02:28:55;;;;;;;0.60;0.60;;;;;;;25.15;56.72;100887.28;4994184;28;20453;-51
2022/05/14 02:31:40;;;;;;;0.70;0.70;;;;;;;25.13;56.80;100878.50;4978790;28;20109;-52
2022/05/14 02:34:23;;;;;;;;;;;;;;;25.09;56.89;100882.72;4994221;28;20561;-53
2022/05/14 02:37:08;;;;;;;0.95;0.80;;;;;;;25.10;56.73;100884.41;4993567;28;19929;-51
2022/05/14 02:39:52;;;;;;;;;;;;;;;25.07;56.81;100882.97;4994190;28;20103;-51
2022/05/14 02:42:36;;;;;;;0.88;0.73;;;;;;;25.08;57.00;100892.81;4978742;28;19925;-55
2022/05/14 02:45:20;;;;;;;;;;;;;;;25.04;56.80;100888.88;4996709;28;20092;-50
2022/05/14 02:48:04;;;;;;;1.13;0.80;;;;;;;25.08;57.01;100886.50;4997288;28;20389;-52
2022/05/14 02:50:48;;;;;;;0.50;0.50;;;;;;;25.06;56.91;100892.22;4997484;28;20446;-50
2022/05/14 02:53:32;;;;;;;;;;;;;;;25.02;56.88;100887.41;4997585;28;20422;-53
2022/05/14 02:56:16;;;;;;;0.75;0.75;;;;;;;25.03;57.02;100889.91;4982722;28;19967;-50
2022/05/14 02:59:07;;;;;;;;;;;;;;;25.00;56.88;100878.63;4998029;28;20104;-51
2022/05/14 03:01:52;;;;;;;0.75;0.75;;;;;;;25.01;56.60;100886.56;4997114;28;19967;-49
2022/05/14 03:04:39;;;;;;;0.60;0.60;;;;;;;25.02;56.96;100884.69;4997260;28;20081;-54
2022/05/14 03:07:23;;;;;;;0.90;0.80;;;;;;;25.00;56.76;100890.34;4997195;28;20075;-49
2022/05/14 03:10:06;;;;;;;;;;;;;;;24.96;56.83;100888.28;4997385;28;20514;-53
2022/05/14 03:12:50;;;;;;;0.77;0.77;;;;;;;24.97;56.95;100885.34;4982034;28;19919;-49
2022/05/14 03:15:34;;;;;;;;;;;;;;;24.93;56.97;100894.19;4997729;28;20073;-52
2022/05/14 03:18:18;;;;;;;0.70;0.70;;;;;;;24.95;57.11;100897.53;4997012;28;20380;-50
2022/05/14 03:21:02;;;;;;;;;;;;;;;24.91;57.07;100897.13;4997347;28;20048;-49
2022/05/14 03:23:46;;;;;;;0.60;0.60;;;;;;;24.92;56.91;100890.63;4981939;28;19972;-50
2022/05/14 03:26:30;;;;;;;;;;;;;;;24.89;56.75;100895.72;4997011;28;20056;-52
2022/05/14 03:29:14;;;;;;;0.95;0.68;;;;;;;24.91;56.77;100893.59;4996606;28;19919;-50
2022/05/14 03:31:58;;;;;;;1.10;0.75;;;;;;;24.90;56.79;100895.47;4996444;28;20096;-49
2022/05/14 03:34:42;;;;;;;0.50;0.50;;;;;;;24.91;56.89;100899.03;4996919;28;20530;-51
2022/05/14 03:37:26;;;;;;;0.70;0.70;;;;;;;24.90;56.71;100900.09;4996665;28;20049;-53
2022/05/14 03:40:12;;;;;;;0.93;0.82;;;;;;;24.89;56.84;100902.00;4981860;28;20402;-50
2022/05/14 03:42:56;;;;;;;0.68;0.60;;;;;;;24.87;56.75;100895.06;4996374;28;20049;-51
2022/05/14 03:45:40;;;;;;;;;;;;;;;24.82;56.84;100897.66;4996599;28;20298;-49
2022/05/14 03:48:25;;;;;;;0.70;0.70;;;;;;;24.84;56.79;100899.09;4996517;28;19964;-55
2022/05/14 03:51:09;;;;;;;0.80;0.80;;;;;;;24.84;56.67;100900.97;4996078;28;20096;-49
2022/05/14 03:53:53;;;;;;;0.68;0.60;;;;;;;24.84;56.76;100898.25;4996192;28;20089;-50
2022/05/14 03:56:39;;;;;;;0.80;0.80;;;;;;;24.83;56.72;100899.31;4967999;28;20069;-52
2022/05/14 03:59:23;;;;;;;0.75;0.65;;;;;;;24.82;56.71;100906.66;4996265;28;20133;-51
2022/05/14 04:02:07;;;;;;;0.70;0.70;;;;;;;24.82;56.56;100908.56;4995964;28;20053;-54
2022/05/14 04:04:51;;;;;;;;;;;;;;;24.77;56.74;100911.09;4996250;28;20421;-52
2022/05/14 04:07:35;;;;;;;0.88;0.82;;;;;;;24.79;56.58;100909.81;4996099;28;19924;-53
2022/05/14 04:10:19;;;;;;;0.60;0.60;;;;;;;24.80;56.49;100905.22;4995910;28;20096;-55
2022/05/14 04:13:03;;;;;;;0.88;0.77;;;;;;;24.79;56.23;100907.09;4996000;28;20049;-55
2022/05/14 04:15:47;;;;;;;;;;;;;;;24.75;56.31;100903.16;4981620;28;20053;-52
2022/05/14 04:18:31;;;;;;;0.70;0.70;;;;;;;24.77;56.40;100913.81;4995987;28;19982;-50
2022/05/14 04:21:15;;;;;;;;;;;;;;;24.74;56.30;100914.28;4996203;28;20529;-51
2022/05/14 04:24:00;;;;;;;0.50;0.50;;;;;;;24.75;56.23;100907.75;4995769;28;19925;-52
2022/05/14 04:26:44;;;;;;;0.73;0.60;;;;;;;24.76;56.29;100912.16;4995437;28;20133;-52
2022/05/14 04:29:28;;;;;;;0.65;0.65;;;;;;;24.76;56.22;100909.44;4980959;28;20462;-49
2022/05/14 04:32:12;;;;;;;0.75;0.50;;;;;;;24.75;56.27;100911.34;4995391;28;20069;-53
2022/05/14 04:34:56;;;;;;;0.73;0.73;;;;;;;24.76;56.18;100920.34;4995295;28;20087;-51
2022/05/14 04:37:40;;;;;;;1.23;0.80;;;;;;;24.75;56.16;100914.06;4995525;28;20506;-51
2022/05/14 04:40:24;;;;;;;;;;;;;;;24.71;56.03;100912.00;4995828;28;20606;-53
2022/05/14 04:43:10;;;;;;;0.90;0.90;;;;;;;24.73;56.27;100920.78;4980529;28;19941;-51
2022/05/14 04:45:54;;;;;;;0.60;0.60;;;;;;;24.74;56.10;100922.44;4995168;28;20049;-54
2022/05/14 04:48:38;;;;;;;;;;;;;;;24.69;56.29;100920.38;4995441;28;20053;-52
2022/05/14 04:51:22;;;;;;;1.73;0.70;;;;;;;24.71;56.14;100920.16;4995212;28;19921;-49
2022/05/14 04:54:06;;;;;;;1.10;0.90;;;;;;;24.72;56.29;100921.84;4980425;28;20415;-51
2022/05/14 04:56:49;;;;;;;;;;;;;;;24.69;56.38;100925.00;4995262;28;20112;-52
2022/05/14 04:59:35;;;;;;;0.75;0.75;;;;;;;24.72;56.31;100930.03;4980135;28;19920;-54
2022/05/14 05:05:22;;;;;;;0.70;0.70;;;;;;;24.74;56.19;100927.91;4994744;28;20422;-51
2022/05/14 05:08:07;;;;;;;0.60;0.60;;;;;;;24.74;56.34;100927.91;4994364;28;20490;-49
2022/05/14 05:10:51;;;;;;;0.68;0.68;;;;;;;24.74;56.37;100927.91;4994897;28;20057;-49
2022/05/14 05:13:35;;;;;;;0.52;0.52;;;;;;;24.75;56.23;100935.03;4994850;28;20415;-52
2022/05/14 05:16:19;;;;;;;1.08;1.00;;;;;;;24.74;56.12;100930.63;4980120;28;20494;-52
2022/05/14 05:19:03;;;;;;;0.75;0.75;;;;;;;24.75;56.16;100940.47;4994709;28;20089;-49
2022/05/14 05:21:48;;;;;;;1.13;1.02;;;;;;;24.75;56.12;100940.47;4994301;28;20049;-49
2022/05/14 05:24:33;;;;;;;1.98;0.70;;;;;;;24.74;56.19;100941.53;4994390;28;20093;-50
2022/05/14 05:27:17;;;;;;;0.70;0.70;;;;;;;24.75;55.91;100945.94;4994648;28;20048;-50
2022/05/14 05:30:01;;;;;;;;;;;;;;;24.71;55.91;100947.44;4994709;28;20056;-50
2022/05/14 05:32:45;;;;;;;0.85;0.73;;;;;;;24.72;56.08;100940.94;4979472;28;19932;-51
2022/05/14 05:35:29;;;;;;;;;;;;;;;24.70;56.25;100946.59;4980177;28;20041;-54
2022/05/14 05:38:13;;;;;;;0.88;0.77;;;;;;;24.73;56.02;100939.88;4994205;28;19960;-51
2022/05/14 05:40:58;;;;;;;0.90;0.90;;;;;;;24.74;56.09;100933.34;4994128;28;20537;-50
2022/05/14 05:43:42;;;;;;;0.70;0.70;;;;;;;24.74;56.20;100938.81;4994034;28;20077;-51
2022/05/14 05:46:25;;;;;;;;;;;;;;;24.70;56.10;100943.88;4994502;28;20057;-55
2022/05/14 05:49:09;;;;;;;1.27;1.10;;;;;;;24.73;56.02;100951.59;4994326;28;19920;-51
2022/05/14 05:51:53;;;;;;;;;;;;;;;24.71;56.10;100947.44;4994620;28;20129;-52
2022/05/14 05:57:40;;;;;;;0.70;0.70;;;;;;;24.74;56.00;100949.72;4994233;28;20113;-52
2022/05/14 06:00:28;;;;;;;0.80;0.80;;;;;;;24.76;55.94;100953.06;4993983;28;20049;-52
2022/05/14 06:03:12;;;;;;;0.70;0.70;;;;;;;24.76;56.04;100953.06;4993949;28;20066;-52
2022/05/14 06:05:56;;;;;;;;;;;;;;;24.71;56.04;100952.91;4979578;28;20056;-51
2022/05/14 06:08:40;;;;;;;0.93;0.88;;;;;;;24.74;56.05;100966.94;4994370;28;19965;-55
2022/05/14 06:11:25;;;;;;;;;;;;;;;24.73;56.02;100969.88;4994171;28;20056;-49
2022/05/14 06:14:10;;;;;;;1.33;0.70;;;;;;;24.76;56.16;100961.25;4979537;28;19921;-53
2022/05/14 06:16:54;;;;;;;0.80;0.80;;;;;;;24.76;55.95;100956.63;4993749;28;20049;-50
2022/05/14 06:19:38;;;;;;;;;;;;;;;24.73;56.25;100962.50;4981134;28;20053;-51
2022/05/14 06:22:22;;;;;;;0.73;0.73;;;;;;;24.75;56.21;100967.75;4982858;28;19990;-53
2022/05/14 06:25:07;;;;;;;0.65;0.65;;;;;;;24.77;55.91;100958.31;4998044;28;20529;-49
2022/05/14 06:27:51;;;;;;;0.68;0.68;;;;;;;24.77;56.11;100958.31;4997913;28;20094;-50
2022/05/14 06:30:37;;;;;;;;;;;;;;;24.74;56.07;100966.09;4998310;28;20165;-50
2022/05/14 06:33:23;;;;;;;0.73;0.73;;;;;;;24.77;56.07;100954.72;4997423;28;19921;-49
2022/05/14 06:36:08;;;;;;;1.00;0.90;;;;;;;24.77;56.09;100961.03;4997495;28;20611;-51
2022/05/14 06:38:52;;;;;;;;;;;;;;;24.75;55.96;100965.03;4997882;28;20046;-51
2022/05/14 06:41:36;;;;;;;0.80;0.80;;;;;;;24.77;56.27;100960.19;4997597;28;20453;-50
2022/05/14 06:44:20;;;;;;;;;;;;;;;24.75;55.90;100967.75;4998079;28;20554;-50
2022/05/14 06:47:04;;;;;;;0.63;0.63;;;;;;;24.78;55.96;100972.75;4997375;28;19960;-53
2022/05/14 06:49:48;;;;;;;;;;;;;;;24.76;56.09;100972.16;4997933;28;20049;-49
2022/05/14 06:52:33;;;;;;;0.70;0.70;;;;;;;24.78;55.94;100968.16;4997679;28;20032;-49
2022/05/14 06:55:20;;;;;;;1.00;0.90;;;;;;;24.81;55.87;100975.06;4982755;28;20501;-54
2022/05/14 06:58:05;;;;;;;0.80;0.80;;;;;;;24.83;55.84;100976.50;4997109;28;20121;-55
2022/05/14 07:00:50;;;;;;;0.70;0.70;;;;;;;24.82;55.87;100983.00;4997024;28;20049;-49
2022/05/14 07:06:40;;;;;;;0.85;0.85;;;;;;;24.82;55.74;100984.91;4997217;28;20057;-50
2022/05/14 07:09:27;;;;;;;1.33;0.80;;;;;;;24.84;55.80;100977.34;4996870;28;20089;-49
2022/05/14 07:12:12;;;;;;;0.68;0.68;;;;;;;24.83;55.97;100981.94;4982442;28;20052;-51
2022/05/14 07:14:56;;;;;;;0.60;0.60;;;;;;;24.84;55.60;100982.81;4996756;28;20521;-50
2022/05/14 07:17:41;;;;;;;0.70;0.70;;;;;;;24.84;55.66;100974.63;4996776;28;20053;-52
2022/05/14 07:20:25;;;;;;;0.80;0.80;;;;;;;24.85;55.64;100979.03;4996995;28;20065;-53
2022/05/14 07:23:09;;;;;;;;;;;;;;;24.81;55.64;100977.78;4996967;28;20049;-53
2022/05/14 07:25:53;;;;;;;0.88;0.70;;;;;;;24.84;55.62;100982.81;4996620;28;19977;-54
2022/05/14 07:28:39;;;;;;;;;;;;;;;24.81;55.58;100973.16;4982482;28;20057;-52
2022/05/14 07:31:36;;;;;;;0.80;0.80;;;;;;;24.86;55.58;100972.50;4996193;28;19969;-54
2022/05/14 07:34:21;;;;;;;0.70;0.70;;;;;;;24.86;55.54;100977.97;4996720;28;20044;-58
2022/05/14 07:37:30;;;;;;;0.88;0.80;;;;;;;24.85;55.52;100971.69;4981692;28;20061;-58
2022/05/14 07:40:18;;;;;;;0.88;0.88;;;;;;;24.87;55.53;100964.09;4996346;28;20465;-58
2022/05/14 07:43:06;;;;;;;0.75;0.70;;;;;;;24.88;55.48;100971.25;4981480;28;20097;-55
2022/05/14 07:45:53;;;;;;;0.70;0.70;;;;;;;24.88;55.42;100975.84;4967792;28;20077;-57
2022/05/14 07:48:39;;;;;;;1.00;0.90;;;;;;;24.89;55.53;100972.09;4996683;28;20049;-57
2022/05/14 07:51:23;;;;;;;0.80;0.80;;;;;;;24.88;55.55;100976.69;4996361;28;20105;-57
2022/05/14 07:54:07;;;;;;;0.80;0.80;;;;;;;24.87;55.47;100971.44;4981613;28;20045;-57
2022/05/14 07:56:51;;;;;;;0.77;0.77;;;;;;;24.89;55.58;100975.63;4981574;28;20069;-54
2022/05/14 07:59:35;;;;;;;1.00;0.82;;;;;;;24.88;55.40;100973.97;4996207;28;20465;-55
2022/05/14 08:02:39;;;;;;;;;;;;;;;24.85;55.50;100973.56;4981575;28;20406;-52
2022/05/14 08:05:23;;;;;;;0.70;0.70;;;;;;;24.87;55.64;100972.28;4995841;28;20314;-57
2022/05/14 08:08:08;;;;;;;;;;;;;;;24.83;55.54;100962.03;4996157;28;20053;-57
2022/05/14 08:10:55;;;;;;;0.75;0.73;;;;;;;24.86;55.56;100964.31;4995855;28;19936;-58
2022/05/14 08:13:40;;;;;;;0.80;0.80;;;;;;;24.88;55.53;100963.06;4995680;28;20095;-57
2022/05/14 08:16:25;;;;;;;0.85;0.85;;;;;;;24.89;55.28;100966.63;4995884;28;20050;-54
2022/05/14 08:19:08;;;;;;;0.80;0.70;;;;;;;24.88;55.42;100971.25;4995549;28;20085;-56
2022/05/14 08:24:55;;;;;;;0.80;0.70;;;;;;;24.88;55.51;100964.94;4995526;28;19920;-58
2022/05/14 08:27:45;;;;;;;;;;;;;;;24.85;55.42;100963.50;4996026;28;20075;-58
2022/05/14 08:30:32;;;;;;;1.00;0.90;;;;;;;24.89;55.44;100963.91;4995629;28;19968;-58
2022/05/14 08:33:16;;;;;;;0.60;0.60;;;;;;;24.89;55.52;100962.00;4980720;28;20084;-58
2022/05/14 08:36:00;;;;;;;;;;;;;;;24.86;55.44;100958.88;4995937;28;20052;-56
2022/05/14 08:38:44;;;;;;;0.90;0.90;;;;;;;24.89;55.57;100961.19;4995222;28;20389;-57
2022/05/14 08:41:29;;;;;;;0.90;0.80;;;;;;;24.90;55.59;100960.13;4994514;28;20046;-56
2022/05/14 08:44:16;;;;;;;1.20;1.10;;;;;;;24.93;55.54;100970.56;4980684;28;20042;-57
2022/05/14 08:47:04;;;;;;;1.90;0.85;;;;;;;24.93;55.33;100968.66;4995340;28;20101;-56
2022/05/14 08:49:50;;;;;;;1.05;0.90;;;;;;;24.93;55.33;100967.84;4995028;28;20054;-58
2022/05/14 08:52:35;;;;;;;0.93;0.93;;;;;;;24.94;55.42;100964.06;4995007;28;20093;-57
2022/05/14 08:55:19;;;;;;;0.93;0.75;;;;;;;24.93;55.45;100960.50;4980495;28;20053;-57
2022/05/14 08:58:14;;;;;;;0.70;0.70;;;;;;;24.96;55.30;100956.50;4994800;28;20053;-58
2022/05/14 09:01:03;;;;;;;1.30;1.00;;;;;;;24.96;55.41;100953.75;4966582;28;20137;-58
2022/05/14 09:03:47;;;;;;;0.82;0.80;;;;;;;24.94;55.51;100956.72;4979939;28;20053;-55
2022/05/14 09:06:31;;;;;;;;;;;;;;;24.91;55.58;100951.69;4995428;28;20045;-59
2022/05/14 09:09:15;;;;;;;0.73;0.73;;;;;;;24.93;55.73;100938.66;4994918;28;20451;-58
2022/05/14 09:12:03;;;;;;;1.33;0.63;;;;;;;24.96;55.37;100942.84;4979859;28;20049;-57
2022/05/14 09:14:52;;;;;;;1.00;0.82;;;;;;;24.97;55.47;100941.78;4979821;28;20057;-59
2022/05/14 09:17:36;;;;;;;1.05;0.93;;;;;;;24.96;55.40;100940.13;4995000;28;20100;-58
2022/05/14 09:20:25;;;;;;;0.75;0.75;;;;;;;24.98;55.50;100940.72;4994477;28;20045;-55
2022/05/14 09:23:09;;;;;;;0.90;0.60;;;;;;;24.99;55.40;100942.41;4994268;28;20093;-56
2022/05/14 09:25:53;;;;;;;0.90;0.90;;;;;;;24.98;55.32;100935.28;4994629;28;20076;-58
2022/05/14 09:28:40;;;;;;;;;;;;;;;24.95;55.48;100935.72;4980105;28;20049;-59
2022/05/14 09:31:36;;;;;;;0.95;0.80;;;;;;;25.00;55.39;100935.91;4979657;28;20000;-56
2022/05/14 09:34:22;;;;;;;1.83;0.70;;;;;;;25.00;55.37;100935.91;4994537;28;20545;-57
2022/05/14 09:37:08;;;;;;;0.75;0.70;;;;;;;25.02;55.38;100936.53;4994262;28;20053;-58
2022/05/14 09:39:59;;;;;;;0.82;0.82;;;;;;;25.03;55.24;100921.81;4979966;28;20467;-56
2022/05/14 09:43:05;;;;;;;0.77;0.77;;;;;;;25.03;55.35;100932.72;4994007;28;20140;-58
2022/05/14 09:46:11;;;;;;;0.80;0.80;;;;;;;25.03;55.27;100936.28;4993874;28;20505;-57
2022/05/14 09:49:07;;;;;;;1.42;1.00;;;;;;;25.05;55.23;100941.53;4979390;28;20076;-58
2022/05/14 09:51:56;;;;;;;0.70;0.63;;;;;;;25.06;55.17;100935.00;4979501;28;20442;-58
2022/05/14 09:54:43;;;;;;;1.02;1.00;;;;;;;25.06;55.25;100933.13;4979214;28;20556;-58
2022/05/14 09:57:46;;;;;;;1.35;0.90;;;;;;;25.07;55.20;100933.94;4979254;28;20053;-57
2022/05/14 10:00:38;;;;;;;0.70;0.70;;;;;;;25.09;55.22;100926.38;4979526;28;20049;-59
2022/05/14 10:03:54;;;;;;;0.80;0.80;;;;;;;25.09;55.14;100929.09;4979385;28;20439;-56
2022/05/14 10:06:45;;;;;;;0.77;0.77;;;;;;;25.10;55.19;100928.06;4994124;28;20445;-57
2022/05/14 10:09:34;;;;;;;0.70;0.70;;;;;;;25.09;55.12;100929.09;4979129;28;20080;-58
2022/05/14 10:12:38;;;;;;;0.95;0.90;;;;;;;25.12;55.03;100925.94;4993680;28;20042;-59
2022/05/14 10:15:37;;;;;;;1.08;0.95;;;;;;;25.12;55.18;100917.75;4979305;28;20100;-57
2022/05/14 10:18:40;;;;;;;1.10;1.00;;;;;;;25.14;55.02;100912.91;4993766;28;20092;-57
2022/05/14 10:21:38;;;;;;;0.70;0.70;;;;;;;25.13;55.00;100908.53;4979053;28;20130;-59
2022/05/14 10:28:24;;;;;;;2.00;0.90;;;;;;;25.15;54.75;100903.66;4981888;28;20410;-57
2022/05/14 10:31:31;;;;;;;0.70;0.70;;;;;;;25.17;54.81;100901.53;4978917;28;20141;-56
2022/05/14 10:34:18;;;;;;;0.70;0.70;;;;;;;25.18;54.92;100897.75;4993878;28;20050;-56
2022/05/14 10:37:33;;;;;;;1.05;1.00;;;;;;;25.19;54.79;100897.53;4978961;28;20045;-58
2022/05/14 10:40:20;;;;;;;;;;;;;;;25.14;54.77;100891.09;4994246;28;20096;-57
2022/05/14 10:43:29;;;;;;;1.33;1.05;;;;;;;25.18;54.78;100892.28;4993423;28;19924;-57
2022/05/14 10:46:18;;;;;;;0.65;0.65;;;;;;;25.21;54.79;100886.44;4993737;28;20041;-54
2022/05/14 10:49:13;;;;;;;0.70;0.70;;;;;;;25.23;54.70;100887.03;4993665;28;20088;-54
2022/05/14 10:51:58;;;;;;;1.02;0.95;;;;;;;25.23;54.74;100881.59;4965236;28;20041;-57
2022/05/14 10:54:43;;;;;;;1.05;1.02;;;;;;;25.25;54.77;100890.38;4978996;28;20045;-55
2022/05/14 10:57:41;;;;;;;1.20;0.88;;;;;;;25.26;54.46;100892.06;4979037;28;20093;-55
2022/05/14 11:00:43;;;;;;;0.93;0.88;;;;;;;25.26;54.39;100881.13;4979084;28;20145;-57
2022/05/14 11:03:31;;;;;;;1.33;0.70;;;;;;;25.28;54.49;100884.47;4965272;28;20053;-59
2022/05/14 11:06:15;;;;;;;1.00;0.88;;;;;;;25.27;54.54;100875.47;4981533;28;20100;-57
2022/05/14 11:08:59;;;;;;;1.13;0.80;;;;;;;25.28;54.35;100868.09;4996943;28;20418;-58
2022/05/14 11:11:49;;;;;;;0.85;0.85;;;;;;;25.31;54.17;100873.13;4997043;28;20177;-55
2022/05/14 11:14:54;;;;;;;0.90;0.90;;;;;;;25.33;54.23;100871.00;4996936;28;20053;-57
2022/05/14 11:17:41;;;;;;;0.60;0.60;;;;;;;25.34;54.24;100870.75;4996770;28;20081;-58
2022/05/14 11:20:25;;;;;;;0.93;0.90;;;;;;;25.36;54.12;100873.25;4996968;28;20434;-56
2022/05/14 11:23:13;;;;;;;0.75;0.70;;;;;;;25.40;54.07;100874.47;4996500;28;20173;-57
2022/05/14 11:26:11;;;;;;;0.90;0.90;;;;;;;25.42;53.81;100866.91;4982341;28;20398;-55
2022/05/14 11:29:11;;;;;;;0.70;0.70;;;;;;;25.44;53.71;100871.06;4997088;28;20056;-58
2022/05/14 11:32:04;;;;;;;0.85;0.82;;;;;;;25.48;53.75;100868.72;4981766;28;20045;-58
2022/05/14 11:34:57;;;;;;;0.70;0.70;;;;;;;25.50;53.52;100863.88;4996401;28;20092;-56
2022/05/14 11:37:45;;;;;;;1.45;1.05;;;;;;;25.52;53.43;100862.59;4996326;28;20132;-55
2022/05/14 11:40:29;;;;;;;0.65;0.65;;;;;;;25.55;53.13;100866.78;4996400;28;20049;-57
2022/05/14 11:43:25;;;;;;;;;;;;;;;25.54;53.04;100859.63;4996835;28;20088;-52
2022/05/14 11:46:09;;;;;;;0.95;0.85;;;;;;;25.58;53.09;100856.22;4981572;28;20351;-56
2022/05/14 11:48:53;;;;;;;;;;;;;;;25.59;53.01;100851.59;4996801;28;20056;-56
2022/05/14 11:51:37;;;;;;;0.70;0.70;;;;;;;25.64;52.96;100843.56;4996231;28;20290;-53
2022/05/14 11:54:39;;;;;;;;;;;;;;;25.65;52.89;100850.69;4996433;28;20307;-56
2022/05/14 11:57:45;;;;;;;0.80;0.80;;;;;;;25.72;52.62;100851.47;4996001;28;20400;-57
2022/05/14 12:00:32;;;;;;;1.00;0.90;;;;;;;25.75;52.76;100846.34;4996274;28;20089;-56
2022/05/14 12:03:27;;;;;;;0.88;0.80;;;;;;;25.79;52.40;100841.25;4995809;28;20126;-52
2022/05/14 12:06:35;;;;;;;1.40;0.90;;;;;;;25.84;52.37;100835.97;4981366;28;20112;-53
2022/05/14 12:09:51;;;;;;;0.70;0.70;;;;;;;25.87;52.03;100830.91;4995993;28;20049;-55
2022/05/14 12:13:05;;;;;;;0.80;0.80;;;;;;;25.91;52.01;100836.72;4996011;28;20126;-55
2022/05/14 12:15:52;;;;;;;1.15;0.82;;;;;;;25.95;52.10;100832.50;4995922;28;20076;-57
2022/05/14 12:18:40;;;;;;;1.08;0.95;;;;;;;25.99;51.75;100828.22;4981278;28;20100;-56
2022/05/14 12:21:24;;;;;;;0.75;0.75;;;;;;;26.02;51.79;100814.13;4981076;28;20049;-57
2022/05/14 12:24:20;;;;;;;0.70;0.70;;;;;;;26.07;51.54;100823.28;4981086;28;20061;-57
2022/05/14 12:27:18;;;;;;;1.10;1.00;;;;;;;26.10;51.40;100813.78;4995526;28;20485;-58
2022/05/14 12:33:11;;;;;;;0.80;0.80;;;;;;;26.14;51.26;100812.28;4980708;28;20050;-57
2022/05/14 12:33:23;;;;;;;1.38;1.00;;;;;;;26.17;51.15;100818.09;4983851;28;20081;-57
2022/05/14 12:36:10;;;;;;;0.85;0.85;;;;;;;26.21;50.99;100807.53;4995556;28;20105;-55
2022/05/14 12:38:54;;;;;;;1.67;0.77;;;;;;;26.24;50.97;100807.88;4980841;28;20462;-52
2022/05/14 12:41:41;;;;;;;0.77;0.77;;;;;;;26.28;50.78;100808.25;4980713;28;20049;-56
2022/05/14 12:44:31;;;;;;;1.05;0.93;;;;;;;26.34;50.44;100804.63;4980966;28;20061;-58
2022/05/14 12:47:24;;;;;;;1.25;0.90;;;;;;;26.37;50.51;100807.72;4980626;28;20049;-56
2022/05/14 12:50:21;;;;;;;0.95;0.80;;;;;;;26.41;50.36;100791.66;4980272;28;20057;-54
2022/05/14 12:53:08;;;;;;;0.82;0.82;;;;;;;26.42;50.43;100796.91;4980248;28;20458;-57
2022/05/14 12:55:54;;;;;;;0.75;0.70;;;;;;;26.46;50.21;100792.63;4995007;28;20132;-56
2022/05/14 12:58:39;;;;;;;0.90;0.90;;;;;;;26.50;50.00;100790.25;4980678;28;20068;-52
2022/05/14 13:01:24;;;;;;;0.70;0.70;;;;;;;26.52;49.90;100790.88;4994826;28;20080;-57
2022/05/14 13:04:09;;;;;;;1.60;0.90;;;;;;;26.55;49.62;100790.44;4995010;28;20097;-57
2022/05/14 13:06:59;;;;;;;1.27;1.00;;;;;;;26.59;49.69;100788.88;4980071;28;20049;-57
2022/05/14 13:09:43;;;;;;;0.70;0.70;;;;;;;26.60;49.57;100788.66;4980162;28;20085;-53
2022/05/14 13:12:29;;;;;;;0.98;0.77;;;;;;;26.64;49.39;100775.34;4994852;28;20089;-56
2022/05/14 13:15:13;;;;;;;1.02;0.85;;;;;;;26.66;49.36;100774.00;4994815;28;20418;-57
2022/05/14 13:17:58;;;;;;;0.95;0.85;;;;;;;26.69;49.24;100779.03;4980147;28;20142;-58
2022/05/14 13:20:42;;;;;;;1.10;1.00;;;;;;;26.72;49.31;100772.22;4995033;28;20058;-55
2022/05/14 13:23:28;;;;;;;1.38;0.90;;;;;;;26.75;49.25;100771.78;4979645;28;20192;-57
2022/05/14 13:26:31;;;;;;;0.85;0.80;;;;;;;26.79;49.17;100762.03;4979783;28;20046;-57
2022/05/14 13:29:31;;;;;;;0.93;0.82;;;;;;;26.82;49.02;100759.66;4994479;28;20057;-58
2022/05/14 13:32:25;;;;;;;0.75;0.70;;;;;;;26.85;48.65;100758.34;4995644;28;20049;-52